Time;durP1;ratioP1;P1;durP2;ratioP2;P2;SDS_P1;SDS_P2;PMS_P1;PMS_P2;Temp;Humidity;BMP_temperature;BMP_pressure;BME280_temperature;BME280_humidity;BME280_pressure;Samples;Min_cycle;Max_cycle;Signal;HPM_P1;HPM_P2
2023/01/03 05:01:50;;;;;;;0.90;0.90;;;4.60;99.90;;;;;;5297570;23;20641;-72
2023/01/03 05:04:18;;;;;;;1.50;1.40;;;4.60;99.90;;;;;;4891915;29;20235;-72
2023/01/03 05:06:44;;;;;;;3.95;3.05;;;4.60;99.90;;;;;;4891951;29;20215;-71
2023/01/03 05:09:11;;;;;;;0.80;0.80;;;4.60;99.90;;;;;;4898185;29;20214;-71
2023/01/03 05:11:38;;;;;;;2.40;2.17;;;4.60;99.90;;;;;;4897049;29;20595;-72
2023/01/03 05:14:04;;;;;;;2.53;1.13;;;4.60;99.90;;;;;;4895865;29;20204;-71
2023/01/03 05:16:31;;;;;;;1.92;1.92;;;4.60;99.90;;;;;;4924452;23;20262;-66
2023/01/03 05:18:59;;;;;;;2.08;1.17;;;4.60;99.90;;;;;;4899638;29;20218;-66
2023/01/03 05:26:56;;;;;;;1.45;1.45;;;4.60;99.90;;;;;;4897566;29;20270;-66
2023/01/03 05:29:23;;;;;;;14.05;2.55;;;4.60;99.90;;;;;;4901317;29;20566;-66
2023/01/03 05:31:50;;;;;;;17.35;1.58;;;4.60;99.90;;;;;;4909883;29;20213;-67
2023/01/03 05:34:18;;;;;;;3.70;1.70;;;4.60;99.90;;;;;;4901092;29;20214;-67
2023/01/03 05:36:45;;;;;;;2.38;2.25;;;4.60;99.90;;;;;;4896973;29;20350;-67
2023/01/03 05:39:12;;;;;;;3.60;2.30;;;4.60;99.90;;;;;;4880693;29;20546;-67
2023/01/03 05:44:23;;;;;;;2.17;1.58;;;4.60;99.90;;;;;;4907096;29;20258;-67
2023/01/03 05:46:50;;;;;;;1.33;1.33;;;4.50;99.90;;;;;;4897595;29;20260;-66
2023/01/03 05:49:18;;;;;;;1.33;1.33;;;4.50;99.90;;;;;;4898625;29;20246;-66
2023/01/03 05:51:45;;;;;;;1.42;1.35;;;4.50;99.90;;;;;;4897272;29;20224;-66
2023/01/03 05:54:14;;;;;;;1.30;1.30;;;4.50;99.90;;;;;;4898907;29;20207;-66
2023/01/03 05:56:40;;;;;;;1.50;1.50;;;4.50;99.90;;;;;;4898008;29;20238;-65
2023/01/03 05:59:07;;;;;;;2.65;1.55;;;4.50;99.90;;;;;;4897463;29;20527;-67
2023/01/03 06:01:34;;;;;;;0.98;0.60;;;4.40;99.90;;;;;;4897291;29;20310;-66
2023/01/03 06:04:01;;;;;;;4.28;3.50;;;4.40;99.90;;;;;;4896927;29;20316;-67
2023/01/03 06:06:29;;;;;;;1.65;1.55;;;4.40;99.90;;;;;;4910926;29;20238;-68
2023/01/03 06:08:56;;;;;;;2.10;2.10;;;4.40;99.90;;;;;;4916196;29;20214;-67
2023/01/03 06:11:23;;;;;;;0.70;0.70;;;4.40;99.90;;;;;;4898409;29;20219;-66
2023/01/03 06:13:50;;;;;;;1.92;1.27;;;4.30;99.90;;;;;;4896720;29;20203;-68
2023/01/03 06:19:04;;;;;;;4.40;2.90;;;4.30;99.90;;;;;;4905985;29;20407;-66
2023/01/03 06:21:32;;;;;;;1.95;0.77;;;4.30;99.90;;;;;;4905850;29;20215;-66
2023/01/03 06:23:59;;;;;;;1.30;1.15;;;4.20;99.90;;;;;;4901953;29;20231;-67
2023/01/03 06:26:26;;;;;;;4.57;2.00;;;4.20;99.90;;;;;;4900315;29;20600;-66
2023/01/03 06:28:53;;;;;;;3.03;2.78;;;4.20;99.90;;;;;;4897366;29;20226;-66
2023/01/03 06:31:20;;;;;;;1.70;1.65;;;4.20;99.90;;;;;;4896584;29;20215;-65
2023/01/03 06:33:47;;;;;;;2.13;2.05;;;4.20;99.90;;;;;;4896643;29;20208;-68
2023/01/03 06:36:15;;;;;;;1.42;1.33;;;4.20;99.90;;;;;;4908704;29;20234;-66
2023/01/03 06:38:44;;;;;;;5.75;1.98;;;4.10;99.90;;;;;;4908463;29;20203;-67
2023/01/03 06:41:12;;;;;;;2.95;1.05;;;4.10;99.90;;;;;;4888488;29;20215;-66
2023/01/03 06:43:39;;;;;;;4.95;2.42;;;4.10;99.90;;;;;;4895523;29;20283;-67
2023/01/03 06:54:23;;;;;;;2.33;2.22;;;4.00;99.90;;;;;;4894257;29;20211;-66
2023/01/03 06:56:52;;;;;;;1.90;1.80;;;3.90;99.90;;;;;;4895268;29;20235;-65
2023/01/03 06:59:19;;;;;;;1.83;1.52;;;3.90;99.90;;;;;;4900104;29;20702;-66
2023/01/03 07:01:47;;;;;;;1.42;1.42;;;3.90;99.90;;;;;;4886419;29;20222;-66
2023/01/03 07:04:14;;;;;;;1.25;1.13;;;3.90;99.90;;;;;;4890855;29;20262;-66
2023/01/03 07:06:42;;;;;;;2.05;1.90;;;3.90;99.90;;;;;;4891754;29;20235;-67
2023/01/03 07:09:09;;;;;;;1.45;1.42;;;3.80;99.90;;;;;;4903633;29;20219;-66
2023/01/03 07:11:38;;;;;;;3.28;2.05;;;3.80;99.90;;;;;;4895340;29;20211;-66
2023/01/03 07:14:05;;;;;;;2.30;2.20;;;3.80;99.90;;;;;;4901031;29;20587;-66
2023/01/03 07:16:34;;;;;;;0.85;0.85;;;3.80;99.90;;;;;;4890732;29;20238;-66
2023/01/03 07:19:01;;;;;;;4.45;2.00;;;3.80;99.90;;;;;;4897567;29;20289;-66
2023/01/03 07:21:30;;;;;;;3.28;2.35;;;3.80;99.90;;;;;;4899890;29;20231;-67
2023/01/03 07:23:58;;;;;;;2.30;2.10;;;3.80;99.90;;;;;;4898812;29;20232;-66
2023/01/03 07:26:25;;;;;;;2.58;2.47;;;3.70;99.90;;;;;;4896697;29;20229;-66
2023/01/03 07:28:53;;;;;;;2.88;1.88;;;3.80;99.90;;;;;;4903711;29;20306;-67
2023/01/03 07:31:20;;;;;;;1.58;1.58;;;3.70;99.90;;;;;;4881885;29;20212;-67
2023/01/03 07:33:46;;;;;;;3.03;2.72;;;3.70;99.90;;;;;;4893474;29;20556;-67
2023/01/03 07:36:15;;;;;;;0.95;0.95;;;3.70;99.90;;;;;;4903418;29;20245;-66
2023/01/03 07:38:43;;;;;;;2.15;1.55;;;3.70;99.90;;;;;;4905611;29;20210;-67
2023/01/03 07:41:11;;;;;;;2.97;2.78;;;3.70;99.90;;;;;;4888937;29;20238;-68
2023/01/03 07:43:39;;;;;;;3.13;2.40;;;3.70;99.90;;;;;;4898089;29;20341;-67
2023/01/03 07:46:09;;;;;;;2.17;1.25;;;3.60;99.90;;;;;;4892533;29;20235;-67
2023/01/03 07:48:37;;;;;;;2.05;1.92;;;3.60;99.90;;;;;;4894314;29;20214;-67
2023/01/03 07:51:05;;;;;;;2.55;2.35;;;3.70;99.90;;;;;;4902324;29;20219;-67
2023/01/03 07:53:32;;;;;;;1.10;1.10;;;3.60;99.90;;;;;;4893375;29;20207;-66
2023/01/03 07:56:04;;;;;;;16.55;3.05;;;3.70;99.90;;;;;;4890946;29;20251;-64
2023/01/03 07:58:31;;;;;;;2.03;1.92;;;3.60;99.90;;;;;;4895243;29;20214;-67
2023/01/03 08:01:04;;;;;;;3.25;2.38;;;3.70;99.90;;;;;;4901261;29;20207;-66
2023/01/03 08:03:32;;;;;;;1.48;1.48;;;3.70;99.90;;;;;;4908608;29;20221;-67
2023/01/03 08:06:02;;;;;;;1.88;1.73;;;3.60;99.90;;;;;;4903082;29;20227;-66
2023/01/03 08:08:29;;;;;;;1.55;1.55;;;3.70;99.90;;;;;;4901122;29;20207;-66
2023/01/03 08:13:40;;;;;;;1.88;1.60;;;3.70;99.90;;;;;;4913043;29;20217;-65
2023/01/03 08:16:09;;;;;;;2.05;1.95;;;3.70;99.90;;;;;;4900875;29;20589;-66
2023/01/03 08:18:38;;;;;;;6.47;1.42;;;3.70;99.90;;;;;;4901238;29;20213;-66
2023/01/03 08:21:05;;;;;;;1.75;1.75;;;3.80;99.90;;;;;;4909807;29;20218;-65
2023/01/03 08:23:32;;;;;;;2.35;2.25;;;3.80;99.90;;;;;;4891377;29;20222;-66
2023/01/03 08:26:04;;;;;;;5.65;3.58;;;3.80;99.90;;;;;;4896564;29;20262;-64
2023/01/03 08:28:32;;;;;;;2.65;2.10;;;3.80;99.90;;;;;;4909262;29;20205;-65
2023/01/03 08:31:02;;;;;;;2.13;2.03;;;3.80;99.90;;;;;;4897831;29;20352;-66
2023/01/03 08:33:33;;;;;;;1.80;1.70;;;3.90;99.90;;;;;;4897376;29;20211;-66
2023/01/03 08:36:05;;;;;;;1.58;1.58;;;3.90;99.90;;;;;;4891967;29;20251;-66
2023/01/03 08:38:37;;;;;;;0.95;0.95;;;3.90;99.90;;;;;;4893643;29;20582;-66
2023/01/03 08:41:06;;;;;;;1.40;1.38;;;3.90;99.90;;;;;;4895814;29;20723;-66
2023/01/03 08:43:36;;;;;;;1.58;1.50;;;4.00;99.90;;;;;;4903176;29;20562;-65
2023/01/03 08:46:06;;;;;;;1.30;1.30;;;4.10;99.90;;;;;;4894886;29;20235;-66
2023/01/03 08:48:35;;;;;;;2.55;2.42;;;4.10;99.90;;;;;;4903007;29;20296;-66
2023/01/03 08:51:03;;;;;;;12.50;1.63;;;4.10;99.90;;;;;;4900303;29;20208;-66
2023/01/03 08:53:30;;;;;;;3.63;2.60;;;4.10;99.90;;;;;;4909598;29;20579;-66
2023/01/03 08:55:57;;;;;;;2.35;1.60;;;4.20;99.90;;;;;;4900809;29;20230;-65
2023/01/03 08:58:23;;;;;;;1.55;1.48;;;4.20;99.90;;;;;;4897077;29;20838;-66
2023/01/03 09:00:50;;;;;;;1.90;1.80;;;4.30;99.90;;;;;;4897020;29;20218;-66
2023/01/03 09:03:17;;;;;;;4.35;2.83;;;4.30;99.90;;;;;;4897600;29;20574;-66
2023/01/03 09:05:44;;;;;;;5.05;3.35;;;4.30;99.90;;;;;;4893656;29;20239;-66
2023/01/03 09:08:12;;;;;;;4.47;2.10;;;4.30;99.90;;;;;;4901470;29;20211;-66
2023/01/03 09:10:39;;;;;;;1.90;1.90;;;4.40;99.90;;;;;;4900917;29;20249;-64
2023/01/03 09:13:06;;;;;;;4.25;3.15;;;4.40;99.90;;;;;;4899291;29;20238;-64
2023/01/03 09:15:33;;;;;;;3.83;3.63;;;4.50;99.90;;;;;;4898089;29;20237;-65
2023/01/03 09:17:59;;;;;;;2.58;2.35;;;4.50;99.90;;;;;;4897944;29;20222;-66
2023/01/03 09:20:26;;;;;;;0.75;0.75;;;4.50;99.90;;;;;;4890722;29;20557;-66
2023/01/03 09:22:53;;;;;;;2.90;2.60;;;4.60;99.90;;;;;;4900169;29;20215;-66
2023/01/03 09:25:21;;;;;;;3.30;2.55;;;4.60;99.90;;;;;;4905127;29;20238;-66
2023/01/03 09:27:48;;;;;;;3.03;2.78;;;4.70;99.90;;;;;;4892694;29;20224;-66
2023/01/03 09:30:16;;;;;;;7.60;1.35;;;4.70;99.90;;;;;;4900786;29;20204;-66
2023/01/03 09:32:43;;;;;;;2.38;1.95;;;4.80;99.90;;;;;;4899803;29;20211;-65
2023/01/03 09:35:10;;;;;;;2.35;2.17;;;4.80;99.90;;;;;;4895837;29;20318;-65
2023/01/03 09:37:36;;;;;;;1.33;1.33;;;4.80;99.90;;;;;;4893788;29;20212;-66
2023/01/03 09:40:04;;;;;;;7.72;2.67;;;4.80;99.90;;;;;;4894763;29;20669;-66
2023/01/03 09:45:24;;;;;;;18.67;2.67;;;4.90;99.90;;;;;;4906046;29;20239;-66
2023/01/03 09:47:50;;;;;;;5.95;1.70;;;4.90;99.90;;;;;;4894707;29;20291;-65
2023/01/03 09:50:21;;;;;;;3.53;1.65;;;5.00;99.90;;;;;;4896781;29;20562;-65
2023/01/03 10:04:48;;;;;;;1.13;1.13;;;5.00;99.90;;;;;;4898602;29;20255;-66
2023/01/03 10:07:28;;;;;;;9.02;2.28;;;5.00;99.90;;;;;;4897190;29;20239;-65
2023/01/03 10:10:06;;;;;;;1.52;1.52;;;5.00;99.90;;;;;;4898373;29;20220;-65
2023/01/03 10:12:46;;;;;;;2.47;2.35;;;5.00;99.90;;;;;;4896033;29;20220;-67
2023/01/03 10:15:25;;;;;;;6.00;2.72;;;5.00;99.90;;;;;;4910040;29;20700;-64
2023/01/03 10:18:01;;;;;;;1.98;1.83;;;5.10;99.90;;;;;;4902836;29;20231;-65
2023/01/03 10:20:42;;;;;;;4.10;2.20;;;5.20;99.90;;;;;;4890332;29;20211;-66
2023/01/03 10:23:10;;;;;;;2.78;2.20;;;5.30;99.90;;;;;;4914340;29;20243;-64
2023/01/03 10:25:39;;;;;;;6.68;4.40;;;5.40;99.90;;;;;;4890911;29;20682;-67
2023/01/03 10:28:12;;;;;;;4.30;4.00;;;5.40;99.90;;;;;;4897937;29;20582;-65
2023/01/03 10:30:57;;;;;;;5.38;3.22;;;5.60;99.90;;;;;;4901389;29;20211;-65
2023/01/03 10:33:31;;;;;;;3.80;3.42;;;5.70;99.90;;;;;;4892383;29;20218;-66
2023/01/03 10:35:58;;;;;;;3.03;2.40;;;5.90;99.90;;;;;;4902954;29;20232;-66
2023/01/03 10:38:25;;;;;;;6.88;3.20;;;5.90;99.90;;;;;;4900398;29;20219;-66
2023/01/03 10:40:56;;;;;;;3.33;2.90;;;6.10;99.90;;;;;;4895563;29;20212;-67
2023/01/03 10:43:28;;;;;;;11.13;5.15;;;6.10;99.90;;;;;;4901857;29;20208;-65
2023/01/03 10:45:58;;;;;;;4.13;2.30;;;6.10;99.90;;;;;;4897839;29;20232;-65
2023/01/03 10:48:34;;;;;;;7.38;4.20;;;6.30;99.90;;;;;;4894737;29;20509;-65
2023/01/03 10:51:05;;;;;;;2.15;2.00;;;6.20;99.90;;;;;;4902204;29;20232;-65
2023/01/03 10:53:37;;;;;;;2.58;1.45;;;6.30;99.90;;;;;;4893999;29;20213;-64
2023/01/03 10:56:05;;;;;;;4.68;4.35;;;6.30;99.90;;;;;;4909422;29;20239;-65
2023/01/03 10:58:33;;;;;;;5.03;3.17;;;6.30;99.90;;;;;;4894505;29;20701;-66
2023/01/03 11:01:19;;;;;;;3.00;2.90;;;6.30;99.90;;;;;;4894217;29;20220;-66
2023/01/03 11:04:07;;;;;;;13.70;5.78;;;6.30;99.90;;;;;;4900398;29;20682;-66
2023/01/03 11:06:34;;;;;;;16.73;9.43;;;6.40;99.90;;;;;;4889798;29;20488;-66
2023/01/03 11:09:04;;;;;;;4.15;3.78;;;6.50;99.90;;;;;;4900171;29;20216;-66
2023/01/03 11:11:33;;;;;;;12.07;4.55;;;6.50;99.90;;;;;;4894058;29;20231;-66
2023/01/03 11:14:15;;;;;;;8.07;3.78;;;6.50;99.90;;;;;;4903426;29;20306;-66
2023/01/03 11:16:43;;;;;;;5.07;3.58;;;6.50;99.90;;;;;;4922808;23;20252;-72
2023/01/03 11:19:17;;;;;;;2.80;2.58;;;6.50;99.90;;;;;;4912743;29;20211;-71
2023/01/03 11:21:48;;;;;;;3.53;2.83;;;6.50;99.90;;;;;;4903201;29;20236;-71
2023/01/03 11:24:27;;;;;;;3.67;3.10;;;6.60;99.90;;;;;;4906498;29;20264;-71
2023/01/03 11:27:02;;;;;;;2.30;2.20;;;6.60;99.90;;;;;;4902341;29;20262;-71
2023/01/03 11:29:56;;;;;;;2.78;2.28;;;6.60;99.90;;;;;;4901666;29;20604;-71
2023/01/03 11:32:37;;;;;;;1.30;1.20;;;6.60;99.90;;;;;;4898267;29;20749;-71
2023/01/03 11:35:39;;;;;;;2.00;1.75;;;6.60;99.90;;;;;;4911085;29;20298;-71
2023/01/03 11:38:22;;;;;;;7.00;2.65;;;6.60;99.90;;;;;;4845665;29;20600;-71
2023/01/03 11:41:04;;;;;;;2.70;2.50;;;6.50;99.90;;;;;;4902417;29;20212;-72
2023/01/03 11:43:45;;;;;;;1.58;1.58;;;6.50;99.90;;;;;;4903175;29;20255;-72
2023/01/03 11:46:27;;;;;;;3.40;3.20;;;6.50;99.90;;;;;;4906623;29;20240;-73
2023/01/03 11:49:14;;;;;;;2.17;1.88;;;6.60;99.90;;;;;;4915119;29;20212;-72
2023/01/03 11:51:51;;;;;;;3.70;3.33;;;6.60;99.90;;;;;;4902364;29;20211;-72
2023/01/03 11:54:35;;;;;;;5.28;2.13;;;6.50;99.90;;;;;;4916751;29;20217;-72
2023/01/03 11:57:10;;;;;;;3.15;2.05;;;6.50;99.90;;;;;;4907727;29;20325;-71
2023/01/03 11:59:54;;;;;;;1.98;1.88;;;6.40;99.90;;;;;;4918942;29;20207;-70
2023/01/03 12:02:51;;;;;;;3.30;3.00;;;6.40;99.90;;;;;;4912692;29;20637;-70
2023/01/03 12:05:38;;;;;;;2.80;2.60;;;6.50;99.90;;;;;;4900739;29;20261;-71
2023/01/03 12:08:21;;;;;;;5.72;2.35;;;6.60;99.90;;;;;;4893690;29;20236;-70
2023/01/03 12:10:56;;;;;;;5.03;2.65;;;6.70;99.90;;;;;;4897932;29;20298;-70
2023/01/03 12:13:32;;;;;;;2.15;1.33;;;6.70;99.90;;;;;;4907088;29;20204;-71
2023/01/03 12:16:04;;;;;;;1.30;1.30;;;6.90;99.90;;;;;;4909731;29;20247;-69
2023/01/03 12:18:42;;;;;;;5.70;2.45;;;6.90;99.90;;;;;;4906964;29;20241;-70
2023/01/03 12:21:14;;;;;;;2.47;2.25;;;7.00;99.90;;;;;;4900839;29;20212;-71
2023/01/03 12:23:44;;;;;;;2.60;1.10;;;7.00;99.90;;;;;;4906202;29;20224;-70
2023/01/03 12:26:14;;;;;;;2.38;1.75;;;7.00;99.90;;;;;;4904109;29;20323;-71
2023/01/03 12:28:42;;;;;;;1.65;1.65;;;7.00;99.90;;;;;;4910545;29;20312;-70
2023/01/03 12:31:20;;;;;;;0.90;0.88;;;7.00;99.90;;;;;;4906577;29;20630;-70
2023/01/03 12:33:55;;;;;;;2.10;1.88;;;6.90;99.90;;;;;;4908246;29;20671;-70
2023/01/03 12:36:33;;;;;;;1.85;1.58;;;6.90;99.90;;;;;;4906367;29;20207;-70
2023/01/03 12:39:12;;;;;;;0.80;0.80;;;6.90;99.90;;;;;;4915509;29;20203;-70
2023/01/03 12:41:45;;;;;;;3.60;3.38;;;6.90;99.90;;;;;;4905812;29;20479;-70
2023/01/03 12:44:17;;;;;;;4.32;1.75;;;6.90;99.90;;;;;;4911508;29;20225;-69
2023/01/03 12:46:49;;;;;;;1.30;0.98;;;6.80;99.90;;;;;;4901975;29;20240;-70
2023/01/03 12:49:21;;;;;;;1.90;1.80;;;6.90;99.90;;;;;;4917666;29;20581;-70
2023/01/03 12:51:49;;;;;;;2.20;1.20;;;6.90;99.90;;;;;;4907444;29;20221;-71
2023/01/03 12:54:30;;;;;;;2.60;1.95;;;6.90;99.90;;;;;;4898410;29;20231;-70
2023/01/03 12:57:38;;;;;;;1.25;0.65;;;6.80;99.90;;;;;;4910800;29;20724;-71
2023/01/03 13:00:19;;;;;;;3.95;2.67;;;6.90;99.90;;;;;;4880314;29;20540;-70
2023/01/03 13:02:50;;;;;;;4.38;4.07;;;6.90;99.90;;;;;;4912736;29;20212;-70
2023/01/03 13:05:24;;;;;;;2.65;2.40;;;6.90;99.90;;;;;;4903519;29;20238;-71
2023/01/03 13:08:00;;;;;;;2.67;1.35;;;6.90;99.90;;;;;;4913936;29;20243;-70
2023/01/03 13:10:30;;;;;;;3.40;3.10;;;6.90;99.90;;;;;;4882842;29;20218;-72
2023/01/03 13:12:59;;;;;;;2.45;2.25;;;6.90;99.90;;;;;;4898202;29;20212;-71
2023/01/03 13:15:29;;;;;;;1.88;1.70;;;6.90;99.90;;;;;;4904847;29;20211;-70
2023/01/03 13:18:15;;;;;;;1.17;1.15;;;6.90;99.90;;;;;;4915259;29;20788;-71
2023/01/03 13:20:42;;;;;;;2.22;2.13;;;6.90;99.90;;;;;;4907782;29;20213;-71
2023/01/03 13:23:41;;;;;;;7.35;2.22;;;6.90;99.90;;;;;;4910923;29;20218;-71
2023/01/03 13:26:22;;;;;;;1.20;1.17;;;6.90;99.90;;;;;;4900752;29;20243;-70
2023/01/03 13:28:50;;;;;;;2.55;1.65;;;6.90;99.90;;;;;;4897029;29;20217;-71
2023/01/03 13:32:03;;;;;;;4.10;3.20;;;7.00;99.90;;;;;;4911016;29;20678;-70
2023/01/03 13:34:34;;;;;;;7.90;2.85;;;6.90;99.90;;;;;;4910162;29;20209;-70
2023/01/03 13:37:16;;;;;;;2.80;1.67;;;6.90;99.90;;;;;;4900946;29;20228;-70
2023/01/03 13:40:20;;;;;;;1.90;1.80;;;6.90;99.90;;;;;;4910605;29;20245;-70
2023/01/03 13:43:00;;;;;;;2.70;2.47;;;6.90;99.90;;;;;;4884494;29;20523;-71
2023/01/03 13:45:58;;;;;;;2.45;2.15;;;6.80;99.90;;;;;;4897168;29;20229;-71
2023/01/03 13:48:28;;;;;;;2.42;1.75;;;6.80;99.90;;;;;;4895293;29;20762;-70
2023/01/03 13:51:37;;;;;;;1.55;1.45;;;6.80;99.90;;;;;;4906518;29;20643;-70
2023/01/03 13:54:21;;;;;;;4.70;2.25;;;6.80;99.90;;;;;;4898370;29;20223;-71
2023/01/03 13:57:02;;;;;;;3.95;3.47;;;6.80;99.90;;;;;;4906682;29;20239;-70
2023/01/03 13:59:35;;;;;;;4.30;3.92;;;6.70;99.90;;;;;;4903421;29;20208;-69
2023/01/03 14:02:56;;;;;;;2.08;1.98;;;6.70;99.90;;;;;;4905368;29;20217;-70
2023/01/03 14:05:59;;;;;;;4.03;2.83;;;6.70;99.90;;;;;;4887387;29;20311;-70
2023/01/03 14:08:36;;;;;;;3.92;2.90;;;6.70;99.90;;;;;;4894625;29;20743;-70
2023/01/03 14:11:27;;;;;;;4.40;1.52;;;6.60;99.90;;;;;;4911322;29;20212;-70
2023/01/03 14:13:55;;;;;;;2.10;2.00;;;6.70;99.90;;;;;;4896858;29;20863;-69
2023/01/03 14:16:25;;;;;;;3.33;2.15;;;6.60;99.90;;;;;;4905407;29;20213;-70
2023/01/03 14:19:01;;;;;;;2.17;1.90;;;6.60;99.90;;;;;;4903569;29;20658;-69
2023/01/03 14:21:41;;;;;;;1.95;1.85;;;6.60;99.90;;;;;;4895660;29;20208;-70
2023/01/03 14:24:16;;;;;;;4.13;3.78;;;6.60;99.90;;;;;;4905104;29;20213;-71
2023/01/03 14:26:43;;;;;;;3.00;2.90;;;6.50;99.90;;;;;;4910480;29;20231;-70
2023/01/03 14:29:17;;;;;;;2.78;2.58;;;6.50;99.90;;;;;;4899181;29;20216;-71
2023/01/03 14:31:48;;;;;;;9.23;4.18;;;6.50;99.90;;;;;;4902730;29;20218;-70
2023/01/03 14:34:24;;;;;;;3.72;3.40;;;6.60;99.90;;;;;;4896346;29;20209;-70
2023/01/03 14:36:51;;;;;;;2.10;2.00;;;6.60;99.90;;;;;;4909657;29;21237;-71
2023/01/03 14:39:30;;;;;;;3.33;1.63;;;6.60;99.90;;;;;;4910863;29;20223;-71
2023/01/03 14:41:57;;;;;;;9.63;4.43;;;6.60;99.90;;;;;;4909676;29;20327;-70
2023/01/03 14:44:24;;;;;;;4.35;4.03;;;6.50;99.90;;;;;;4900026;29;20215;-71
2023/01/03 14:46:55;;;;;;;2.78;2.60;;;6.50;99.90;;;;;;4905067;29;20241;-70
2023/01/03 14:49:24;;;;;;;8.27;2.45;;;6.50;99.90;;;;;;4906887;29;20644;-69
2023/01/03 14:51:57;;;;;;;2.55;2.42;;;6.50;99.90;;;;;;4898263;29;20296;-70
2023/01/03 14:54:26;;;;;;;3.63;3.33;;;6.50;99.90;;;;;;4899412;29;20669;-70
2023/01/03 14:56:55;;;;;;;4.43;3.42;;;6.40;99.90;;;;;;4897957;29;20228;-71
2023/01/03 14:59:23;;;;;;;4.00;3.60;;;6.40;99.90;;;;;;4916167;29;20205;-70
2023/01/03 15:01:52;;;;;;;6.18;3.08;;;6.40;99.90;;;;;;4901038;29;20239;-70
2023/01/03 15:04:19;;;;;;;2.88;2.63;;;6.40;99.90;;;;;;4906588;29;20204;-70
2023/01/03 15:06:57;;;;;;;4.63;2.58;;;6.30;99.90;;;;;;4900023;29;20345;-69
2023/01/03 15:09:25;;;;;;;6.10;4.15;;;6.30;99.90;;;;;;4902136;29;20688;-70
2023/01/03 15:11:59;;;;;;;5.95;5.38;;;6.40;99.90;;;;;;4903656;29;20212;-70
2023/01/03 15:14:27;;;;;;;5.40;3.55;;;6.40;99.90;;;;;;4896084;29;20261;-71
2023/01/03 15:17:04;;;;;;;4.07;3.70;;;6.30;99.90;;;;;;4893074;29;20259;-70
2023/01/03 15:19:32;;;;;;;5.60;3.53;;;6.40;99.90;;;;;;4906014;29;20220;-70
2023/01/03 15:22:14;;;;;;;3.00;2.90;;;6.40;99.90;;;;;;4907990;29;20211;-70
2023/01/03 15:24:43;;;;;;;12.32;4.47;;;6.40;99.90;;;;;;4905360;29;20213;-70
2023/01/03 15:27:32;;;;;;;4.00;3.08;;;6.40;99.90;;;;;;4907125;29;20240;-70
2023/01/03 15:30:22;;;;;;;5.28;4.30;;;6.40;99.90;;;;;;4910702;29;20239;-71
2023/01/03 15:32:53;;;;;;;8.77;4.40;;;6.40;99.90;;;;;;4912166;29;20215;-70
2023/01/03 15:35:21;;;;;;;4.35;3.90;;;6.40;99.90;;;;;;4905160;29;20438;-70
2023/01/03 15:37:53;;;;;;;4.28;3.85;;;6.40;99.90;;;;;;4908102;29;20304;-69
2023/01/03 15:40:20;;;;;;;10.23;5.97;;;6.50;99.90;;;;;;4915527;29;20873;-70
2023/01/03 15:45:36;;;;;;;6.55;4.72;;;6.50;99.90;;;;;;4907581;29;20275;-70
2023/01/03 15:48:06;;;;;;;7.68;4.07;;;6.50;99.90;;;;;;4904208;29;20393;-70
2023/01/03 15:50:43;;;;;;;7.13;5.40;;;6.50;99.90;;;;;;4912124;29;20237;-70
2023/01/03 15:53:32;;;;;;;4.90;3.22;;;6.50;99.90;;;;;;4907214;29;20294;-71
2023/01/03 15:56:03;;;;;;;3.10;2.83;;;6.50;99.90;;;;;;4908134;29;20215;-70
2023/01/03 15:58:30;;;;;;;7.57;4.13;;;6.40;99.90;;;;;;4905151;29;20239;-70
2023/01/03 16:00:59;;;;;;;5.45;3.63;;;6.50;99.90;;;;;;4913701;29;20217;-70
2023/01/03 16:03:30;;;;;;;3.17;2.97;;;6.40;99.90;;;;;;4902011;29;20216;-70
2023/01/03 16:05:57;;;;;;;7.25;4.80;;;6.50;99.90;;;;;;4904125;29;20674;-70
2023/01/03 16:08:31;;;;;;;5.80;3.63;;;6.40;99.90;;;;;;4894989;29;20318;-69
2023/01/03 16:11:00;;;;;;;6.80;3.83;;;6.40;99.90;;;;;;4900121;29;20212;-70
2023/01/03 16:13:29;;;;;;;4.50;4.18;;;6.40;99.90;;;;;;4896087;29;20213;-69
2023/01/03 16:15:57;;;;;;;6.80;3.00;;;6.30;99.90;;;;;;4902934;29;20219;-69
2023/01/03 16:18:32;;;;;;;29.88;5.32;;;6.30;99.90;;;;;;4891686;29;20232;-70
2023/01/03 16:20:59;;;;;;;4.78;4.43;;;6.30;99.90;;;;;;4908712;29;20598;-70
2023/01/03 16:23:28;;;;;;;8.27;3.20;;;6.40;99.90;;;;;;4897692;29;20239;-70
2023/01/03 16:25:55;;;;;;;4.32;3.95;;;6.30;99.90;;;;;;4905863;29;20205;-69
2023/01/03 16:28:22;;;;;;;8.13;4.43;;;6.30;99.90;;;;;;4893632;29;20262;-70
2023/01/03 16:30:59;;;;;;;6.60;3.92;;;6.30;99.90;;;;;;4899531;29;20207;-69
2023/01/03 16:33:30;;;;;;;4.68;4.28;;;6.30;99.90;;;;;;4902019;29;20206;-69
2023/01/03 16:35:58;;;;;;;5.47;4.20;;;6.30;99.90;;;;;;4912612;29;20225;-69
2023/01/03 16:38:25;;;;;;;8.07;4.97;;;6.30;99.90;;;;;;4905962;29;20315;-70
2023/01/03 16:40:53;;;;;;;10.85;5.05;;;6.30;99.90;;;;;;4914477;29;20215;-70
2023/01/03 16:43:20;;;;;;;7.13;5.78;;;6.20;99.90;;;;;;4906453;29;20240;-69
2023/01/03 16:45:47;;;;;;;5.75;5.03;;;6.20;99.90;;;;;;4907620;29;20208;-70
2023/01/03 16:48:17;;;;;;;6.72;5.05;;;6.20;99.90;;;;;;4906876;29;20334;-70
2023/01/03 16:50:46;;;;;;;9.05;4.22;;;6.20;99.90;;;;;;4896233;29;20218;-70
2023/01/03 16:53:24;;;;;;;4.55;4.35;;;6.20;99.90;;;;;;4890332;29;20216;-70
2023/01/03 16:55:53;;;;;;;7.50;5.60;;;6.20;99.90;;;;;;4893338;29;20559;-70
2023/01/03 16:58:22;;;;;;;7.13;4.90;;;6.20;99.90;;;;;;4898416;29;20227;-71
2023/01/03 17:00:49;;;;;;;3.25;3.15;;;6.20;99.90;;;;;;4896958;29;20231;-71
2023/01/03 17:03:16;;;;;;;9.32;4.80;;;6.10;99.90;;;;;;4907096;29;20205;-70
2023/01/03 17:05:43;;;;;;;9.60;6.20;;;6.10;99.90;;;;;;4913053;29;20230;-71
2023/01/03 17:08:18;;;;;;;4.78;4.25;;;6.10;99.90;;;;;;4898293;29;20245;-70
2023/01/03 17:10:47;;;;;;;5.10;3.30;;;6.10;99.90;;;;;;4893492;29;20243;-70
2023/01/03 17:13:25;;;;;;;6.88;5.53;;;6.00;99.90;;;;;;4900203;29;20230;-69
2023/01/03 17:15:52;;;;;;;3.75;2.95;;;5.90;99.90;;;;;;4909553;29;20208;-70
2023/01/03 17:18:20;;;;;;;4.90;4.43;;;5.90;99.90;;;;;;4905058;29;20240;-69
2023/01/03 17:20:51;;;;;;;10.15;6.88;;;5.90;99.90;;;;;;4903563;29;20217;-70
2023/01/03 17:23:20;;;;;;;4.13;3.60;;;5.90;99.90;;;;;;4907116;29;20208;-69
2023/01/03 17:25:46;;;;;;;7.88;5.40;;;5.90;99.90;;;;;;4895924;29;20681;-69
2023/01/03 17:28:13;;;;;;;7.80;3.78;;;5.90;99.90;;;;;;4898884;29;20608;-69
2023/01/03 17:30:40;;;;;;;7.82;4.15;;;5.80;99.90;;;;;;4909506;29;20227;-69
2023/01/03 17:33:07;;;;;;;4.30;3.88;;;5.80;99.90;;;;;;4911343;29;20992;-70
2023/01/03 17:35:36;;;;;;;8.82;4.03;;;5.80;99.90;;;;;;4896606;29;20204;-69
2023/01/03 17:38:02;;;;;;;8.13;6.72;;;5.70;99.90;;;;;;4909131;29;20241;-69
2023/01/03 17:40:32;;;;;;;4.55;4.10;;;5.70;99.90;;;;;;4907663;29;20209;-70
2023/01/03 17:42:59;;;;;;;7.40;5.03;;;5.60;99.90;;;;;;4901278;29;20217;-70
2023/01/03 17:50:55;;;;;;;7.03;5.47;;;5.50;99.90;;;;;;4909734;29;20207;-70
2023/01/03 17:53:23;;;;;;;7.35;5.70;;;5.50;99.90;;;;;;4900509;29;20212;-69
2023/01/03 17:55:51;;;;;;;5.90;4.90;;;5.50;99.90;;;;;;4901728;29;20227;-70
2023/01/03 17:58:24;;;;;;;3.42;3.10;;;5.40;99.90;;;;;;4901547;29;20264;-70
2023/01/03 18:00:51;;;;;;;8.57;5.57;;;5.40;99.90;;;;;;4905335;29;20216;-70
2023/01/03 18:03:17;;;;;;;7.78;4.63;;;5.40;99.90;;;;;;4915093;29;20219;-70
2023/01/03 18:05:44;;;;;;;12.70;5.05;;;5.40;99.90;;;;;;4909730;29;20213;-70
2023/01/03 18:08:17;;;;;;;5.38;4.90;;;5.40;99.90;;;;;;4908052;29;20243;-70
2023/01/03 18:10:45;;;;;;;7.70;4.05;;;5.40;99.90;;;;;;4907867;29;20264;-69
2023/01/03 18:13:21;;;;;;;5.47;4.70;;;5.40;99.90;;;;;;4903101;29;20213;-69
2023/01/03 18:15:48;;;;;;;9.15;5.75;;;5.40;99.90;;;;;;4901965;29;20215;-70
2023/01/03 18:18:16;;;;;;;5.07;4.55;;;5.50;99.90;;;;;;4903461;29;20603;-69
2023/01/03 18:20:45;;;;;;;7.53;5.90;;;5.50;99.90;;;;;;4903156;29;20212;-69
2023/01/03 18:23:17;;;;;;;7.05;4.00;;;5.50;99.90;;;;;;4900475;29;20209;-69
2023/01/03 18:25:44;;;;;;;9.18;7.57;;;5.50;99.90;;;;;;4911565;29;20752;-69
2023/01/03 18:28:12;;;;;;;7.30;5.30;;;5.50;99.90;;;;;;4898559;29;20243;-69
2023/01/03 18:30:40;;;;;;;4.70;4.28;;;5.50;99.90;;;;;;4896592;29;20534;-70
2023/01/03 18:33:07;;;;;;;5.95;5.38;;;5.60;99.90;;;;;;4902773;29;20945;-69
2023/01/03 18:35:34;;;;;;;5.70;5.30;;;5.50;99.90;;;;;;4892296;29;20205;-70
2023/01/03 18:38:01;;;;;;;5.32;4.30;;;5.60;99.90;;;;;;4892135;29;20248;-70
2023/01/03 18:40:29;;;;;;;9.15;8.38;;;5.60;99.90;;;;;;4902711;29;20208;-71
2023/01/03 18:43:11;;;;;;;5.20;3.72;;;5.60;99.90;;;;;;4898586;29;20872;-70
2023/01/03 18:45:41;;;;;;;9.38;5.40;;;5.60;99.90;;;;;;4896660;29;20208;-70
2023/01/03 18:48:13;;;;;;;4.53;4.32;;;5.60;99.90;;;;;;4904199;29;20447;-70
2023/01/03 18:50:40;;;;;;;10.50;6.43;;;5.70;99.90;;;;;;4903516;29;20223;-69
2023/01/03 18:53:11;;;;;;;3.85;3.50;;;5.70;99.90;;;;;;4913287;29;20235;-70
2023/01/03 18:55:38;;;;;;;5.20;4.82;;;5.60;99.90;;;;;;4901194;29;20207;-69
2023/01/03 18:58:12;;;;;;;23.05;8.77;;;5.60;99.90;;;;;;4903029;29;20588;-71
2023/01/03 19:00:39;;;;;;;30.08;18.65;;;5.60;99.90;;;;;;4904831;29;20219;-70
2023/01/03 19:03:20;;;;;;;26.70;8.05;;;5.60;99.90;;;;;;4888694;29;20219;-70
2023/01/03 19:05:47;;;;;;;12.57;6.18;;;5.60;99.90;;;;;;4901765;29;20234;-71